Etusivu
METAR-TAF:

METAR-TAF

Lentoasemat :

Moorhead Municipal Airport

Moorhead, Minnesota, Yhdysvallat

Leveyspiiri: 46-50-21N, Pituuspiiri: 096-39-47W, korkeus merenpinnasta: 280 m

Tämänhetkinen sää

Tämä raportti tehtiin 28 minuuttia sitten, kello 04.15 UTC
Tuuli 4 kn pohjoisesta
Lämpötila 8°C
Kosteus 76%
Ilmanpaine 1021 hPa
Näkyvyys: 16.1 km
selkeää

METAR: KJKJ 230415Z AUTO 35004KT 10SM CLR 08/04 A3015 RMK AO2

Aika: 23:43 (04:43 UTC)


TAF: puuttuu

Säähavainnot ja -ennusteet yli 4000 lentoasemalta (METAR- ja TAF-raportit).

Käytössä olevat sääasemat on merkitty karttaan keltaisilla ja punaisilla pisteillä.

Aseta hiiri pisteen päälle nähdäksesi sääaseman nimen.

Klikkaa sitten nähdäksesi säähavainnot ja -ennusteet.

Kartan vaihtaminen: klikkaa mustalla rastilla varustettuja vihreitä pisteitä, niin voit zoomata sisään; viivalla varustettua vihreää pistettä, niin voit zoomata ulos tai vihreitä nuolia, niin pääset viereisille kartoille.


METAR-TAF: